Time;durP1;ratioP1;P1;durP2;ratioP2;P2;SDS_P1;SDS_P2;PMS_P1;PMS_P2;Temp;Humidity;BMP_temperature;BMP_pressure;BME280_temperature;BME280_humidity;BME280_pressure;Samples;Min_cycle;Max_cycle;Signal;HPM_P1;HPM_P2
2021/07/22 00:01:38;;;;;;;;;;;21.20;99.90;;;;;;5099100;28;19924;-83
2021/07/22 00:04:05;;;;;;;;;;;21.10;99.90;;;;;;5098954;28;19924;-83
2021/07/22 00:06:31;;;;;;;;;;;21.10;99.90;;;;;;5098972;28;20030;-83
2021/07/22 00:51:44;;;;;;;;;;;20.70;99.90;;;;;;5097440;28;20057;-84
2021/07/22 00:54:11;;;;;;;;;;;20.70;99.90;;;;;;5098089;28;19924;-84
2021/07/22 00:56:38;;;;;;;;;;;20.70;99.90;;;;;;5098069;28;20284;-84
2021/07/22 00:59:05;;;;;;;;;;;20.60;99.90;;;;;;5097935;28;20026;-84
2021/07/22 01:01:32;;;;;;;;;;;20.60;99.90;;;;;;5098101;28;19924;-84
2021/07/22 01:40:37;;;;;;;;;;;20.20;99.90;;;;;;5097218;28;19919;-84
2021/07/22 01:43:05;;;;;;;;;;;20.10;99.90;;;;;;5096969;28;20368;-84
2021/07/22 01:45:32;;;;;;;;;;;20.10;99.90;;;;;;5096992;28;20235;-84
2021/07/22 01:47:58;;;;;;;;;;;20.00;99.90;;;;;;5096991;28;19924;-85
2021/07/22 01:50:25;;;;;;;;;;;19.90;99.90;;;;;;5097108;28;19935;-83
2021/07/22 01:52:52;;;;;;;;;;;19.90;99.90;;;;;;5096846;28;19931;-84
2021/07/22 01:55:19;;;;;;;;;;;19.90;99.90;;;;;;5096703;28;19935;-83
2021/07/22 01:57:48;;;;;;;;;;;19.90;99.90;;;;;;5096776;28;19924;-84
2021/07/22 02:00:15;;;;;;;;;;;19.80;99.90;;;;;;5096965;28;19932;-83
2021/07/22 02:02:42;;;;;;;;;;;19.80;99.90;;;;;;5096940;28;19931;-84
2021/07/22 02:05:10;;;;;;;;;;;19.80;99.90;;;;;;5096683;28;20322;-83
2021/07/22 02:07:37;;;;;;;;;;;19.80;99.90;;;;;;5096637;28;19924;-83
2021/07/22 02:10:04;;;;;;;;;;;19.80;99.90;;;;;;5096485;28;19932;-83
2021/07/22 02:12:31;;;;;;;;;;;19.80;99.90;;;;;;5096792;28;19946;-83
2021/07/22 02:14:59;;;;;;;;;;;19.70;99.90;;;;;;5096490;28;19924;-83
2021/07/22 02:17:26;;;;;;;;;;;19.70;99.90;;;;;;5096462;28;19931;-83
2021/07/22 02:19:52;;;;;;;;;;;19.60;99.90;;;;;;5096412;28;20069;-83
2021/07/22 02:22:19;;;;;;;;;;;19.60;99.90;;;;;;5095951;28;19951;-83
2021/07/22 02:24:46;;;;;;;;;;;19.60;99.90;;;;;;5096228;28;19924;-83
2021/07/22 02:27:13;;;;;;;;;;;19.60;99.90;;;;;;5096414;28;19951;-83
2021/07/22 02:29:39;;;;;;;;;;;19.60;99.90;;;;;;5096209;28;19931;-83
2021/07/22 02:32:08;;;;;;;;;;;19.60;99.90;;;;;;5096197;28;19947;-84
2021/07/22 02:34:35;;;;;;;;;;;19.60;99.90;;;;;;5096203;28;19947;-83
2021/07/22 02:37:02;;;;;;;;;;;19.60;99.90;;;;;;5095950;28;19924;-83
2021/07/22 02:39:29;;;;;;;;;;;19.60;99.90;;;;;;5096242;28;19924;-83
2021/07/22 02:41:56;;;;;;;;;;;19.60;99.90;;;;;;5096081;28;19924;-83
2021/07/22 02:44:22;;;;;;;;;;;19.60;99.90;;;;;;5095880;28;19924;-83
2021/07/22 02:46:49;;;;;;;;;;;19.50;99.90;;;;;;5096076;28;19924;-84
2021/07/22 02:49:17;;;;;;;;;;;19.50;99.90;;;;;;5095782;28;19943;-83
2021/07/22 02:51:44;;;;;;;;;;;19.50;99.90;;;;;;5095623;28;19931;-83
2021/07/22 02:54:11;;;;;;;;;;;19.50;99.90;;;;;;5096048;28;19924;-84
2021/07/22 02:56:38;;;;;;;;;;;19.50;99.90;;;;;;5095877;28;19936;-84
2021/07/22 02:59:05;;;;;;;;;;;19.40;99.90;;;;;;5095564;28;19931;-83
2021/07/22 03:01:32;;;;;;;;;;;19.40;99.90;;;;;;5095733;28;19924;-83
2021/07/22 03:03:58;;;;;;;;;;;19.40;99.90;;;;;;5095587;28;20349;-83
2021/07/22 03:06:27;;;;;;;;;;;19.40;99.90;;;;;;5095657;28;19935;-84
2021/07/22 03:08:53;;;;;;;;;;;19.40;99.90;;;;;;5095727;28;19943;-84
2021/07/22 03:11:20;;;;;;;;;;;19.40;99.90;;;;;;5095501;28;20342;-84
2021/07/22 03:13:49;;;;;;;;;;;19.30;99.90;;;;;;5094788;28;21263;-83
2021/07/22 03:16:16;;;;;;;;;;;19.30;99.90;;;;;;5095441;28;19935;-83
2021/07/22 03:18:43;;;;;;;;;;;19.30;99.90;;;;;;5095398;28;19924;-83
2021/07/22 03:21:11;;;;;;;;;;;19.20;99.90;;;;;;5095406;28;19935;-84
2021/07/22 03:23:39;;;;;;;;;;;19.20;99.90;;;;;;5095526;28;19924;-84
2021/07/22 03:26:06;;;;;;;;;;;19.20;99.90;;;;;;5095396;28;19923;-83
2021/07/22 03:28:32;;;;;;;;;;;19.20;99.90;;;;;;5095452;28;19924;-84
2021/07/22 03:30:59;;;;;;;;;;;19.20;99.90;;;;;;5095127;28;19928;-83
2021/07/22 03:33:26;;;;;;;;;;;19.20;99.90;;;;;;5094927;28;19987;-84
2021/07/22 03:35:53;;;;;;;;;;;19.20;99.90;;;;;;5094516;28;19928;-84
2021/07/22 03:38:20;;;;;;;;;;;19.10;99.90;;;;;;5095311;28;19924;-84
2021/07/22 03:40:48;;;;;;;;;;;19.20;99.90;;;;;;5094953;28;19924;-84
2021/07/22 03:43:15;;;;;;;;;;;19.10;99.90;;;;;;5095147;28;19924;-84
2021/07/22 03:45:42;;;;;;;;;;;19.10;99.90;;;;;;5095206;28;19924;-83
2021/07/22 03:48:08;;;;;;;;;;;19.10;99.90;;;;;;5095043;28;19932;-84
2021/07/22 03:50:35;;;;;;;;;;;19.00;99.90;;;;;;5094961;28;19924;-84
2021/07/22 03:53:02;;;;;;;;;;;19.00;99.90;;;;;;5094926;28;19924;-84
2021/07/22 03:55:29;;;;;;;;;;;19.00;99.90;;;;;;5095141;28;19939;-84
2021/07/22 03:57:57;;;;;;;;;;;18.90;99.90;;;;;;5095083;28;19928;-84
2021/07/22 04:00:24;;;;;;;;;;;18.90;99.90;;;;;;5095048;28;20357;-84
2021/07/22 04:03:00;;;;;;;;;;;18.80;99.90;;;;;;5094881;28;19932;-84
2021/07/22 04:05:27;;;;;;;;;;;18.80;99.90;;;;;;5095160;28;19993;-84
2021/07/22 04:07:55;;;;;;;;;;;18.80;99.90;;;;;;5094905;28;20346;-84
2021/07/22 04:10:22;;;;;;;;;;;18.80;99.90;;;;;;5094798;28;19934;-85
2021/07/22 04:12:52;;;;;;;;;;;18.80;99.90;;;;;;5094955;28;19939;-85
2021/07/22 04:15:22;;;;;;;;;;;18.80;99.90;;;;;;5094877;28;19939;-84
2021/07/22 04:17:49;;;;;;;;;;;18.80;99.90;;;;;;5094648;28;19932;-84
2021/07/22 04:20:16;;;;;;;;;;;18.70;99.90;;;;;;5094865;28;19935;-84
2021/07/22 04:22:43;;;;;;;;;;;18.80;99.90;;;;;;5094932;28;20265;-85
2021/07/22 04:25:10;;;;;;;;;;;18.70;99.90;;;;;;5094583;28;19923;-84
2021/07/22 04:27:37;;;;;;;;;;;18.80;99.90;;;;;;5094858;28;19924;-84
2021/07/22 04:30:04;;;;;;;;;;;18.80;99.90;;;;;;5094746;28;19947;-85
2021/07/22 04:32:32;;;;;;;;;;;18.70;99.90;;;;;;5094916;28;19950;-85
2021/07/22 04:35:01;;;;;;;;;;;18.70;99.90;;;;;;5094860;28;19947;-85
2021/07/22 04:37:27;;;;;;;;;;;18.70;99.90;;;;;;5094788;28;20002;-84
2021/07/22 04:39:54;;;;;;;;;;;18.70;99.90;;;;;;5094463;28;20373;-84
2021/07/22 04:42:21;;;;;;;;;;;18.60;99.90;;;;;;5094655;28;19923;-85
2021/07/22 04:44:48;;;;;;;;;;;18.60;99.90;;;;;;5094469;28;20250;-84
2021/07/22 04:47:15;;;;;;;;;;;18.60;99.90;;;;;;5098191;28;19931;-85
2021/07/22 04:49:43;;;;;;;;;;;18.60;99.90;;;;;;5098012;28;20281;-84
2021/07/22 04:52:10;;;;;;;;;;;18.60;99.90;;;;;;5097774;28;20345;-84
2021/07/22 04:54:36;;;;;;;;;;;18.60;99.90;;;;;;5098159;28;19924;-84
2021/07/22 04:57:03;;;;;;;;;;;18.60;99.90;;;;;;5097981;28;19946;-85
2021/07/22 04:59:30;;;;;;;;;;;18.60;99.90;;;;;;5097853;28;19924;-84
2021/07/22 05:01:57;;;;;;;;;;;18.60;99.90;;;;;;5098152;28;20253;-84
2021/07/22 05:04:24;;;;;;;;;;;18.70;99.90;;;;;;5097710;28;19924;-85
2021/07/22 05:06:52;;;;;;;;;;;18.70;99.90;;;;;;5097785;28;19924;-85
2021/07/22 05:09:19;;;;;;;;;;;18.70;99.90;;;;;;5097812;28;19924;-85
2021/07/22 05:11:46;;;;;;;;;;;18.70;99.90;;;;;;5097610;28;20361;-85
2021/07/22 05:14:12;;;;;;;;;;;18.70;99.90;;;;;;5097854;28;19950;-85
2021/07/22 05:16:39;;;;;;;;;;;18.80;99.90;;;;;;5097597;28;19939;-84
2021/07/22 05:19:06;;;;;;;;;;;18.80;99.90;;;;;;5097589;28;19924;-84
2021/07/22 05:21:33;;;;;;;;;;;18.80;99.90;;;;;;5097567;28;19924;-85
2021/07/22 05:24:01;;;;;;;;;;;18.80;99.90;;;;;;5097381;28;19939;-85
2021/07/22 05:26:28;;;;;;;;;;;18.90;99.90;;;;;;5097359;28;19924;-84
2021/07/22 05:28:55;;;;;;;;;;;18.90;99.90;;;;;;5097240;28;19930;-84
2021/07/22 05:31:21;;;;;;;;;;;18.90;99.90;;;;;;5097490;28;19935;-84
2021/07/22 05:33:48;;;;;;;;;;;18.90;99.90;;;;;;5097183;28;19923;-85
2021/07/22 05:36:15;;;;;;;;;;;19.00;99.90;;;;;;5097172;28;19924;-84
2021/07/22 05:38:42;;;;;;;;;;;19.10;99.90;;;;;;5097044;28;20254;-84
2021/07/22 05:41:10;;;;;;;;;;;19.10;99.90;;;;;;5097128;28;19931;-84
2021/07/22 05:43:37;;;;;;;;;;;19.10;99.90;;;;;;5097049;28;19989;-84
2021/07/22 05:46:04;;;;;;;;;;;19.20;99.90;;;;;;5097025;28;20357;-84
2021/07/22 05:48:31;;;;;;;;;;;19.20;99.90;;;;;;5097216;28;19924;-84
2021/07/22 05:50:59;;;;;;;;;;;19.30;99.90;;;;;;5096930;28;20357;-84
2021/07/22 05:53:26;;;;;;;;;;;19.40;99.90;;;;;;5096884;28;20360;-85
2021/07/22 05:55:56;;;;;;;;;;;19.40;99.90;;;;;;5096802;28;19927;-84
2021/07/22 05:58:24;;;;;;;;;;;19.50;99.90;;;;;;5095967;28;19939;-85
2021/07/22 06:00:51;;;;;;;;;;;19.70;99.90;;;;;;5096682;28;19935;-84
2021/07/22 06:03:18;;;;;;;;;;;19.80;99.90;;;;;;5096772;28;19927;-85
2021/07/22 06:05:44;;;;;;;;;;;19.90;99.90;;;;;;5096742;28;20364;-84
2021/07/22 06:08:11;;;;;;;;;;;20.00;99.90;;;;;;5096541;28;19924;-84
2021/07/22 06:10:38;;;;;;;;;;;20.10;99.90;;;;;;5096591;28;19924;-84
2021/07/22 06:13:05;;;;;;;;;;;20.20;99.90;;;;;;5096690;28;19924;-85
2021/07/22 06:15:33;;;;;;;;;;;20.30;99.90;;;;;;5096510;28;20261;-85
2021/07/22 06:18:00;;;;;;;;;;;20.40;99.90;;;;;;5096350;28;20028;-85
2021/07/22 06:20:27;;;;;;;;;;;20.50;99.90;;;;;;5096432;28;19924;-85
2021/07/22 06:22:53;;;;;;;;;;;20.70;99.90;;;;;;5096344;28;19928;-85
2021/07/22 06:25:21;;;;;;;;;;;20.80;99.90;;;;;;5096262;28;19928;-85
2021/07/22 06:27:48;;;;;;;;;;;21.00;99.90;;;;;;5096138;28;20347;-85
2021/07/22 06:30:15;;;;;;;;;;;21.20;99.90;;;;;;5096198;28;20400;-86
2021/07/22 06:32:43;;;;;;;;;;;21.40;99.90;;;;;;5096112;28;19919;-86
2021/07/22 06:35:10;;;;;;;;;;;21.60;99.90;;;;;;5096069;28;19935;-86
2021/07/22 06:37:43;;;;;;;;;;;21.80;99.90;;;;;;5096063;28;19931;-89
2021/07/22 06:40:10;;;;;;;;;;;22.20;99.90;;;;;;5096001;28;19919;-89
2021/07/22 06:42:37;;;;;;;;;;;22.70;99.90;;;;;;5096460;28;19930;-87
2021/07/22 06:45:04;;;;;;;;;;;23.40;99.90;;;;;;5096373;28;19920;-88
2021/07/22 06:47:31;;;;;;;;;;;24.60;99.90;;;;;;5096234;28;19920;-87
2021/07/22 06:49:59;;;;;;;;;;;25.80;99.90;;;;;;5096301;28;19920;-88
2021/07/22 06:52:26;;;;;;;;;;;27.10;99.90;;;;;;5095856;28;19920;-88
2021/07/22 06:54:53;;;;;;;;;;;28.40;99.90;;;;;;5096025;28;19924;-88
2021/07/22 06:57:20;;;;;;;;;;;29.50;99.90;;;;;;5095526;28;19923;-87
2021/07/22 06:59:47;;;;;;;;;;;30.30;98.00;;;;;;5095743;28;19920;-87
2021/07/22 07:02:13;;;;;;;;;;;30.90;96.00;;;;;;5095820;28;19920;-88
2021/07/22 07:04:40;;;;;;;;;;;31.40;91.80;;;;;;5094737;28;20349;-87
2021/07/22 07:07:08;;;;;;;;;;;32.00;95.60;;;;;;5095553;28;20338;-88
2021/07/22 07:09:35;;;;;;;7.10;4.13;;;32.20;95.80;;;;;;5094319;28;20418;-87
2021/07/22 07:12:03;;;;;;;8.70;4.28;;;32.60;94.30;;;;;;5095247;28;20044;-88
2021/07/22 07:14:30;;;;;;;7.72;4.40;;;33.00;92.70;;;;;;5095231;28;20051;-88
2021/07/22 07:16:57;;;;;;;8.40;3.63;;;33.40;91.30;;;;;;5094725;28;20044;-87
2021/07/22 07:19:24;;;;;;;6.30;3.55;;;33.80;84.30;;;;;;5094873;28;20058;-88
2021/07/22 07:21:51;;;;;;;5.88;3.53;;;34.20;81.80;;;;;;5094874;28;20048;-88
2021/07/22 07:24:20;;;;;;;5.90;3.60;;;34.70;77.40;;;;;;5095225;28;20055;-88
2021/07/22 07:26:47;;;;;;;8.48;4.32;;;35.30;73.90;;;;;;5094892;28;20048;-88
2021/07/22 07:29:14;;;;;;;6.45;3.60;;;35.30;62.30;;;;;;5094933;28;20044;-88
2021/07/22 07:31:41;;;;;;;5.40;4.05;;;35.60;66.60;;;;;;5094866;28;20051;-88
2021/07/22 07:34:08;;;;;;;6.63;3.78;;;35.70;61.70;;;;;;5094622;28;20044;-87
2021/07/22 07:36:39;;;;;;;7.55;3.55;;;36.00;63.60;;;;;;5094626;28;20048;-87
2021/07/22 07:39:06;;;;;;;6.95;3.63;;;36.20;61.50;;;;;;5095007;28;20048;-87
2021/07/22 07:41:34;;;;;;;7.28;3.92;;;36.60;60.80;;;;;;5094728;28;20404;-88
2021/07/22 07:44:01;;;;;;;4.60;3.35;;;37.00;60.20;;;;;;5094525;28;20051;-88
2021/07/22 07:46:28;;;;;;;5.28;3.72;;;37.50;58.00;;;;;;5094592;28;20048;-87
2021/07/22 07:48:55;;;;;;;8.07;4.07;;;37.80;58.50;;;;;;5094222;28;20047;-87
2021/07/22 07:51:22;;;;;;;4.63;3.67;;;38.10;57.60;;;;;;5094578;28;20052;-88
2021/07/22 07:53:51;;;;;;;5.30;4.18;;;38.50;56.80;;;;;;5094784;28;20454;-88
2021/07/22 07:56:18;;;;;;;5.25;3.97;;;38.80;55.50;;;;;;5094471;28;20121;-88
2021/07/22 07:58:47;;;;;;;5.25;3.70;;;38.60;52.00;;;;;;5094467;28;20059;-87
2021/07/22 08:01:14;;;;;;;5.57;3.83;;;38.60;54.50;;;;;;5094479;28;20052;-88
2021/07/22 08:03:41;;;;;;;7.68;4.18;;;39.00;53.60;;;;;;5093702;28;20052;-88
2021/07/22 08:06:08;;;;;;;7.53;3.67;;;38.80;53.10;;;;;;5094698;28;20385;-88
2021/07/22 08:08:35;;;;;;;6.10;3.40;;;39.00;52.50;;;;;;5094649;28;20055;-87
2021/07/22 08:11:02;;;;;;;5.70;3.90;;;39.20;52.90;;;;;;5094550;28;20048;-87
2021/07/22 08:13:29;;;;;;;5.55;4.28;;;39.60;53.00;;;;;;5094495;28;20044;-88
2021/07/22 08:15:57;;;;;;;8.25;4.13;;;39.50;51.00;;;;;;5094449;28;20063;-89
2021/07/22 08:18:24;;;;;;;8.20;5.05;;;39.50;51.10;;;;;;5094304;28;20051;-88
2021/07/22 08:20:51;;;;;;;4.88;3.95;;;39.60;51.00;;;;;;5095777;28;20052;-88
2021/07/22 08:23:19;;;;;;;4.50;3.53;;;39.60;51.20;;;;;;5095247;28;20056;-87
2021/07/22 08:25:47;;;;;;;5.30;4.00;;;39.60;50.70;;;;;;5094201;28;20063;-88
2021/07/22 08:28:14;;;;;;;5.47;3.85;;;38.90;50.60;;;;;;5098048;28;20602;-87
2021/07/22 08:30:41;;;;;;;9.65;4.68;;;37.20;52.30;;;;;;5097929;28;20052;-87
2021/07/22 08:33:09;;;;;;;5.88;3.72;;;35.40;54.70;;;;;;5097847;28;20052;-87
2021/07/22 08:35:36;;;;;;;6.57;3.80;;;33.60;57.30;;;;;;5098249;28;20048;-87
2021/07/22 08:38:03;;;;;;;5.40;4.05;;;32.10;59.00;;;;;;5097906;28;20040;-86
2021/07/22 08:40:31;;;;;;;8.60;4.70;;;31.10;61.20;;;;;;5097972;28;20047;-87
2021/07/22 08:43:02;;;;;;;6.22;5.03;;;30.30;62.60;;;;;;5098037;28;20056;-87
2021/07/22 08:45:29;;;;;;;5.93;3.92;;;29.70;65.90;;;;;;5098005;28;20044;-86
2021/07/22 08:47:57;;;;;;;7.53;4.65;;;29.20;66.40;;;;;;5097944;28;20109;-86
2021/07/22 08:50:25;;;;;;;5.93;3.67;;;28.80;74.90;;;;;;5097838;28;20048;-87
2021/07/22 08:52:52;;;;;;;8.85;4.03;;;28.30;83.70;;;;;;5097458;28;20071;-86
2021/07/22 08:55:19;;;;;;;8.02;4.10;;;28.00;87.90;;;;;;5097591;28;20052;-87
2021/07/22 08:57:47;;;;;;;6.15;4.05;;;27.70;92.60;;;;;;5097503;28;20466;-86
2021/07/22 09:00:14;;;;;;;8.73;3.92;;;27.50;95.00;;;;;;5097400;28;20055;-86
2021/07/22 09:02:42;;;;;;;5.43;3.45;;;27.40;97.80;;;;;;5097562;28;20051;-86
2021/07/22 09:05:10;;;;;;;8.65;3.60;;;27.40;97.30;;;;;;5097330;28;20458;-86
2021/07/22 09:07:38;;;;;;;;;;;27.30;99.90;;;;;;5097760;28;20044;-86
2021/07/22 09:10:15;;;;;;;;;;;27.30;99.90;;;;;;5097799;28;19920;-87
2021/07/22 09:12:42;;;;;;;;;;;27.20;99.90;;;;;;5097524;28;20351;-86
2021/07/22 09:15:10;;;;;;;;;;;27.10;99.10;;;;;;5097818;28;19931;-86
2021/07/22 09:17:37;;;;;;;;;;;27.10;99.60;;;;;;5097553;28;19919;-86
2021/07/22 09:20:04;;;;;;;;;;;27.10;99.90;;;;;;5097533;28;19920;-85
2021/07/22 09:22:34;;;;;;;;;;;27.00;99.90;;;;;;5097186;28;19919;-86
2021/07/22 09:25:02;;;;;;;;;;;26.90;99.90;;;;;;5097414;28;19969;-86
2021/07/22 09:27:32;;;;;;;;;;;26.80;99.90;;;;;;5096880;28;19920;-86
2021/07/22 09:29:59;;;;;;;;;;;26.80;99.90;;;;;;5097681;28;19920;-86
2021/07/22 09:32:29;;;;;;;;;;;26.80;99.90;;;;;;5096021;28;19920;-86
2021/07/22 09:35:04;;;;;;;;;;;26.80;99.90;;;;;;5097233;28;19931;-86
2021/07/22 09:37:30;;;;;;;;;;;26.70;99.90;;;;;;5097199;28;19920;-86
2021/07/22 09:39:57;;;;;;;;;;;26.60;99.90;;;;;;5097003;28;19924;-86
2021/07/22 09:42:25;;;;;;;;;;;26.50;99.90;;;;;;5097015;28;19922;-86
2021/07/22 09:44:52;;;;;;;;;;;26.50;99.90;;;;;;5097023;28;19924;-86
2021/07/22 09:47:26;;;;;;;;;;;26.50;99.90;;;;;;5097173;28;19931;-86
2021/07/22 09:49:53;;;;;;;;;;;26.40;99.90;;;;;;5096952;28;19924;-86
2021/07/22 09:52:23;;;;;;;;;;;26.40;99.90;;;;;;5096747;28;19920;-86
2021/07/22 09:54:49;;;;;;;;;;;26.40;99.90;;;;;;5096694;28;19920;-86
2021/07/22 09:57:17;;;;;;;;;;;26.40;99.90;;;;;;5096800;28;19920;-86
2021/07/22 09:59:45;;;;;;;;;;;26.40;99.90;;;;;;5096770;28;20265;-86
2021/07/22 10:02:21;;;;;;;;;;;26.40;99.90;;;;;;5094441;28;20408;-86
2021/07/22 10:04:50;;;;;;;;;;;26.40;99.90;;;;;;5095117;28;19942;-86
2021/07/22 10:07:17;;;;;;;;;;;26.50;99.90;;;;;;5096417;28;19920;-86
2021/07/22 10:09:43;;;;;;;;;;;26.50;99.90;;;;;;5096219;28;19927;-86
2021/07/22 10:12:10;;;;;;;;;;;26.50;99.90;;;;;;5096458;28;19919;-86
2021/07/22 10:14:37;;;;;;;;;;;26.60;99.90;;;;;;5096180;28;19920;-86
2021/07/22 10:17:05;;;;;;;;;;;26.60;99.90;;;;;;5096532;28;19920;-86
2021/07/22 10:19:32;;;;;;;;;;;26.50;99.90;;;;;;5096341;28;19923;-86
2021/07/22 10:21:59;;;;;;;;;;;26.60;99.90;;;;;;5096222;28;19920;-86
2021/07/22 10:24:26;;;;;;;;;;;26.50;99.90;;;;;;5096117;28;19920;-85
2021/07/22 10:26:53;;;;;;;;;;;26.50;99.90;;;;;;5096116;28;19977;-86
2021/07/22 10:29:20;;;;;;;;;;;26.50;99.90;;;;;;5096088;28;20338;-86
2021/07/22 10:31:47;;;;;;;;;;;26.50;99.90;;;;;;5096182;28;19920;-86
2021/07/22 10:34:16;;;;;;;;;;;26.50;99.90;;;;;;5096255;28;19919;-86
2021/07/22 10:36:44;;;;;;;;;;;26.50;99.90;;;;;;5096149;28;20261;-86
2021/07/22 10:39:11;;;;;;;;;;;26.50;99.90;;;;;;5095921;28;19963;-86
2021/07/22 10:41:39;;;;;;;;;;;26.50;99.90;;;;;;5095962;28;19927;-87
2021/07/22 10:44:06;;;;;;;;;;;26.50;99.90;;;;;;5095616;28;20263;-86
2021/07/22 10:46:47;;;;;;;;;;;26.50;99.90;;;;;;5096055;28;19924;-86
2021/07/22 10:49:15;;;;;;;;;;;26.50;99.90;;;;;;5095374;28;19920;-86
2021/07/22 10:51:42;;;;;;;;;;;26.50;99.90;;;;;;5095621;28;19930;-86
2021/07/22 10:54:09;;;;;;;;;;;26.60;99.90;;;;;;5095962;28;19931;-86
2021/07/22 10:56:52;;;;;;;;;;;26.60;99.90;;;;;;5095385;28;20378;-86
2021/07/22 10:59:19;;;;;;;;;;;26.60;99.90;;;;;;5095195;28;19928;-86
2021/07/22 11:01:53;;;;;;;;;;;26.60;99.90;;;;;;5095371;28;20242;-86
2021/07/22 11:04:38;;;;;;;;;;;26.70;99.90;;;;;;5095540;28;19927;-86
2021/07/22 11:07:07;;;;;;;;;;;26.70;99.90;;;;;;5095650;28;19920;-86
2021/07/22 11:09:43;;;;;;;;;;;26.70;99.90;;;;;;5095140;28;19924;-85
2021/07/22 11:12:10;;;;;;;;;;;26.70;99.90;;;;;;5095339;28;20347;-86
2021/07/22 11:14:37;;;;;;;;;;;26.70;99.90;;;;;;5095263;28;19920;-86
2021/07/22 11:17:04;;;;;;;;;;;26.80;99.90;;;;;;5095364;28;19931;-86
2021/07/22 11:19:31;;;;;;;;;;;26.90;99.90;;;;;;5095364;28;19920;-86
2021/07/22 11:21:58;;;;;;;;;;;26.90;99.90;;;;;;5095372;28;20372;-85
2021/07/22 11:24:27;;;;;;;;;;;26.90;99.90;;;;;;5095224;28;20340;-86
2021/07/22 11:26:54;;;;;;;;;;;26.90;99.90;;;;;;5095216;28;19920;-86
2021/07/22 11:29:22;;;;;;;;;;;26.90;99.90;;;;;;5095374;28;19920;-86
2021/07/22 11:31:49;;;;;;;;;;;26.90;99.90;;;;;;5095049;28;20028;-85
2021/07/22 11:34:16;;;;;;;;;;;26.90;99.90;;;;;;5095231;28;19931;-85
2021/07/22 11:36:43;;;;;;;;;;;26.80;99.90;;;;;;5095296;28;19931;-86
2021/07/22 11:39:10;;;;;;;;;;;26.80;99.90;;;;;;5095171;28;19920;-85
2021/07/22 11:41:38;;;;;;;;;;;26.70;99.90;;;;;;5095029;28;19920;-86
2021/07/22 11:44:05;;;;;;;;;;;26.70;99.90;;;;;;5095047;28;19920;-86
2021/07/22 11:46:36;;;;;;;;;;;26.70;99.90;;;;;;5095005;28;19920;-86
2021/07/22 11:49:07;;;;;;;;;;;26.70;99.90;;;;;;5095103;28;19924;-85
2021/07/22 11:51:34;;;;;;;;;;;26.60;99.90;;;;;;5094823;28;19985;-85
2021/07/22 11:54:02;;;;;;;;;;;26.60;99.90;;;;;;5095309;28;20321;-85
2021/07/22 11:56:32;;;;;;;;;;;26.50;99.90;;;;;;5097551;28;20337;-86
2021/07/22 11:59:00;;;;;;;;;;;26.40;99.90;;;;;;5099066;28;19973;-86
2021/07/22 12:01:27;;;;;;;;;;;26.30;99.90;;;;;;5098969;28;20319;-85
2021/07/22 12:03:53;;;;;;;;;;;26.20;99.90;;;;;;5098902;28;20000;-85
2021/07/22 12:06:24;;;;;;;;;;;26.20;99.90;;;;;;5099028;28;19931;-86
2021/07/22 12:09:03;;;;;;;;;;;26.20;99.90;;;;;;5098853;28;19981;-85
2021/07/22 12:11:30;;;;;;;;;;;26.20;99.90;;;;;;5099117;28;19920;-86
2021/07/22 12:13:57;;;;;;;;;;;26.20;99.90;;;;;;5098867;28;19919;-85
2021/07/22 12:16:25;;;;;;;;;;;26.20;99.90;;;;;;5098814;28;19920;-86
2021/07/22 12:18:52;;;;;;;;;;;26.20;99.90;;;;;;5098567;28;19928;-86
2021/07/22 12:21:20;;;;;;;;;;;26.30;99.90;;;;;;5098652;28;19920;-86
2021/07/22 12:23:47;;;;;;;;;;;26.30;99.90;;;;;;5098752;28;19920;-86
2021/07/22 12:26:16;;;;;;;;;;;26.40;99.90;;;;;;5098701;28;20447;-85
2021/07/22 12:28:43;;;;;;;;;;;26.40;99.90;;;;;;5098602;28;19924;-86
2021/07/22 12:31:20;;;;;;;;;;;26.30;99.90;;;;;;5098304;28;19927;-87
2021/07/22 12:33:57;;;;;;;;;;;26.30;99.90;;;;;;5098436;28;19973;-86
2021/07/22 12:36:24;;;;;;;;;;;26.30;99.90;;;;;;5098556;28;19920;-86
2021/07/22 12:39:13;;;;;;;;;;;26.30;99.90;;;;;;5098222;28;20360;-86
2021/07/22 12:41:40;;;;;;;;;;;26.30;99.90;;;;;;5098395;28;19928;-86
2021/07/22 12:44:07;;;;;;;;;;;26.40;99.90;;;;;;5097738;28;19920;-86
2021/07/22 12:46:34;;;;;;;;;;;26.40;99.90;;;;;;5098089;28;19977;-86
2021/07/22 12:49:02;;;;;;;;;;;26.40;99.90;;;;;;5098326;28;19919;-86
2021/07/22 12:51:29;;;;;;;;;;;26.30;99.90;;;;;;5097990;28;19938;-86
2021/07/22 12:53:57;;;;;;;;;;;26.30;99.90;;;;;;5097734;28;19931;-86
2021/07/22 12:56:24;;;;;;;;;;;26.40;99.90;;;;;;5098284;28;20000;-86
2021/07/22 12:58:51;;;;;;;;;;;26.40;99.90;;;;;;5097972;28;19920;-86
2021/07/22 13:01:18;;;;;;;;;;;26.40;99.90;;;;;;5097865;28;19924;-85
2021/07/22 13:03:46;;;;;;;;;;;26.50;99.90;;;;;;5097498;28;19924;-86
2021/07/22 13:06:14;;;;;;;;;;;26.60;99.90;;;;;;5097073;28;19934;-86
2021/07/22 13:08:41;;;;;;;;;;;26.70;99.90;;;;;;5097694;28;19931;-86
2021/07/22 13:11:09;;;;;;;;;;;26.80;99.90;;;;;;5097230;28;19947;-85
2021/07/22 13:13:36;;;;;;;;;;;26.80;99.90;;;;;;5097619;28;19931;-86
2021/07/22 13:16:03;;;;;;;;;;;26.90;99.90;;;;;;5097607;28;19977;-85
2021/07/22 13:18:30;;;;;;;;;;;26.90;99.90;;;;;;5099474;28;19920;-85
2021/07/22 13:20:57;;;;;;;;;;;27.00;98.30;;;;;;5103237;28;20356;-85
2021/07/22 13:23:25;;;;;;;;;;;27.00;98.10;;;;;;5097611;28;19935;-86
2021/07/22 13:25:52;;;;;;;;;;;27.10;98.40;;;;;;5097515;28;19939;-85
2021/07/22 13:28:19;;;;;;;;;;;27.00;98.10;;;;;;5097606;28;19919;-86
2021/07/22 13:30:46;;;;;;;;;;;27.00;98.80;;;;;;5097599;28;20291;-85
2021/07/22 13:33:12;;;;;;;;;;;27.10;99.80;;;;;;5097472;28;20261;-86
2021/07/22 13:35:41;;;;;;;;;;;27.00;99.90;;;;;;5097406;28;19935;-86
2021/07/22 13:38:07;;;;;;;;;;;27.00;99.90;;;;;;5097224;28;20272;-85
2021/07/22 13:40:36;;;;;;;;;;;26.90;99.90;;;;;;5097179;28;19928;-86
2021/07/22 13:43:03;;;;;;;;;;;26.80;99.90;;;;;;5097194;28;19924;-86
2021/07/22 13:45:30;;;;;;;;;;;26.80;99.90;;;;;;5097317;28;19924;-86
2021/07/22 13:47:57;;;;;;;;;;;26.80;99.90;;;;;;5097282;28;19927;-86
2021/07/22 13:50:23;;;;;;;;;;;26.80;99.90;;;;;;5097006;28;20383;-87
2021/07/22 13:52:50;;;;;;;;;;;26.90;97.60;;;;;;5096781;28;19924;-85
2021/07/22 13:55:17;;;;;;;;;;;27.00;97.20;;;;;;5097094;28;19924;-86
2021/07/22 13:57:45;;;;;;;;;;;27.00;98.10;;;;;;5096874;28;19924;-86
2021/07/22 14:00:12;;;;;;;;;;;27.10;98.00;;;;;;5096960;28;20239;-85
2021/07/22 14:02:39;;;;;;;;;;;27.10;98.60;;;;;;5096843;28;19924;-86
2021/07/22 14:05:06;;;;;;;;;;;27.20;99.90;;;;;;5096669;28;19924;-86
2021/07/22 14:07:33;;;;;;;;;;;27.30;94.80;;;;;;5096632;28;19935;-85
2021/07/22 14:10:00;;;;;;;;;;;27.40;94.40;;;;;;5096742;28;19924;-86
2021/07/22 14:12:27;;;;;;;;;;;27.40;94.40;;;;;;5096810;28;19924;-86
2021/07/22 14:14:55;;;;;;;;;;;27.50;95.90;;;;;;5096635;28;20365;-86
2021/07/22 14:17:22;;;;;;;;;;;27.50;94.90;;;;;;5096532;28;19943;-86
2021/07/22 14:19:48;;;;;;;;;;;27.50;95.30;;;;;;5095764;28;19935;-86
2021/07/22 14:22:15;;;;;;;;;;;27.60;92.10;;;;;;5096287;28;19939;-86
2021/07/22 14:24:42;;;;;;;;;;;27.60;91.60;;;;;;5096399;28;19924;-86
2021/07/22 14:27:09;;;;;;;;;;;27.70;88.70;;;;;;5096296;28;19924;-86
2021/07/22 14:29:36;;;;;;;;;;;27.80;87.80;;;;;;5096167;28;20384;-86
2021/07/22 14:32:04;;;;;;;;;;;27.90;91.10;;;;;;5096286;28;19924;-86
2021/07/22 14:34:33;;;;;;;;;;;27.90;87.80;;;;;;5092322;28;20636;-85
2021/07/22 14:36:59;;;;;;;;;;;28.00;90.30;;;;;;5094140;28;19923;-86
2021/07/22 14:39:27;;;;;;;;;;;28.10;92.00;;;;;;5095915;28;19924;-86
2021/07/22 14:41:53;;;;;;;;;;;28.10;88.00;;;;;;5095926;28;19938;-86
2021/07/22 14:44:20;;;;;;;;;;;28.20;91.00;;;;;;5096231;28;19924;-86
2021/07/22 14:46:48;;;;;;;;;;;28.20;90.90;;;;;;5096022;28;19928;-85
2021/07/22 14:49:16;;;;;;;;;;;28.20;88.20;;;;;;5095600;28;19928;-85
2021/07/22 14:51:43;;;;;;;;;;;28.20;84.90;;;;;;5100962;28;19924;-85
2021/07/22 14:54:10;;;;;;;;;;;28.20;88.20;;;;;;5096053;28;19924;-86
2021/07/22 14:56:37;;;;;;;;;;;28.30;86.50;;;;;;5095698;28;19924;-86
2021/07/22 14:59:04;;;;;;;;;;;28.30;88.40;;;;;;5095672;28;19931;-86
2021/07/22 15:01:31;;;;;;;;;;;28.30;90.30;;;;;;5095669;28;20357;-86
2021/07/22 15:03:58;;;;;;;;;;;28.30;90.40;;;;;;5095595;28;19950;-86
2021/07/22 15:06:26;;;;;;;;;;;28.30;91.30;;;;;;5095688;28;20257;-85
2021/07/22 15:08:53;;;;;;;;;;;28.30;91.90;;;;;;5095739;28;19925;-86
2021/07/22 15:11:19;;;;;;;;;;;28.30;81.90;;;;;;5095522;28;20261;-86
2021/07/22 15:13:48;;;;;;;;;;;28.30;88.20;;;;;;5095390;28;19927;-85
2021/07/22 15:16:15;;;;;;;;;;;28.30;90.80;;;;;;5095311;28;19935;-85
2021/07/22 15:18:42;;;;;;;;;;;28.30;92.60;;;;;;5094721;28;20345;-86
2021/07/22 15:21:09;;;;;;;;;;;28.40;91.60;;;;;;5095019;28;20427;-86
2021/07/22 15:23:37;;;;;;;;;;;28.40;93.90;;;;;;5095355;28;20376;-85
2021/07/22 15:26:04;;;;;;;;;;;28.40;89.20;;;;;;5095419;28;19935;-86